PWSweather.com
Personal Weather Stations
Station Observations
NAGEO265NE
Bedzin GrodziecPL 42-506

Bedzin GrodziecPL 42-506

Lat: 50.347, Lon: 19.079

Elevation: 948

Station Type: WH1080

http://www.meteo-grodziec.pl/

High Low Average
Temperature 38.8°F3.8°C 25.3°F-3.7°C 34.0°F1.1°C
Dew Point 37.9°F3.3°C 23.9°F-4.5°C 32.7°F0.4°C
Winds 8.0 mph 12.9 kmh 1.0 mph 1.6 kmh 5.0 mph NE8.0 kmh NE
Wind Gusts 18.0 mph29.0 kmh 4.0 mph6.4 kmh 11.0 mph17.7 kmh
Humidity 96% 92% 95%
Pressure 29.76 in1007.8 mb 29.55 in1000.7 mb -
Precipitation 0.43 in10.9 mm - -
Hour Temp Dew Point Humidity Winds Wind Gusts Pressure Precip Precip Rate Daily Precip Total
12:00 AM 35.6°F2.0°C 33.4°F0.8°C 92% 6.0 mph ENE9.7 kmh ENE 14.0 mph22.5 kmh 29.76 in1007.8 mb 0.00 in0.0 mm 0.00 in0.0 mm 0.00 in0.0 mm
12:05 AM 35.6°F2.0°C 33.4°F0.8°C 92% 6.0 mph ENE9.7 kmh ENE 14.0 mph22.5 kmh 29.76 in1007.8 mb 0.00 in0.0 mm 0.00 in0.0 mm 0.00 in0.0 mm
12:10 AM 35.6°F2.0°C 33.4°F0.8°C 92% 7.0 mph ENE11.3 kmh ENE 14.0 mph22.5 kmh 29.76 in1007.8 mb 0.00 in0.0 mm 0.00 in0.0 mm 0.00 in0.0 mm
12:15 AM 35.6°F2.0°C 33.4°F0.8°C 92% 7.0 mph ENE11.3 kmh ENE 14.0 mph22.5 kmh 29.76 in1007.8 mb 0.00 in0.0 mm 0.00 in0.0 mm 0.00 in0.0 mm
12:20 AM 35.6°F2.0°C 33.4°F0.8°C 92% 6.0 mph ENE9.7 kmh ENE 16.0 mph25.7 kmh 29.75 in1007.5 mb 0.00 in0.0 mm 0.00 in0.0 mm 0.00 in0.0 mm
12:25 AM 35.4°F1.9°C 33.4°F0.8°C 92% 6.0 mph ENE9.7 kmh ENE 16.0 mph25.7 kmh 29.75 in1007.5 mb 0.00 in0.0 mm 0.00 in0.0 mm 0.00 in0.0 mm
12:30 AM 35.4°F1.9°C 33.4°F0.8°C 92% 6.0 mph ENE9.7 kmh ENE 13.0 mph20.9 kmh 29.75 in1007.5 mb 0.00 in0.0 mm 0.00 in0.0 mm 0.00 in0.0 mm
12:35 AM 35.4°F1.9°C 33.4°F0.8°C 92% 7.0 mph ENE11.3 kmh ENE 13.0 mph20.9 kmh 29.75 in1007.5 mb 0.00 in0.0 mm 0.00 in0.0 mm 0.00 in0.0 mm
12:40 AM 35.4°F1.9°C 33.3°F0.7°C 92% 7.0 mph ENE11.3 kmh ENE 13.0 mph20.9 kmh 29.75 in1007.5 mb 0.00 in0.0 mm 0.00 in0.0 mm 0.00 in0.0 mm
12:45 AM 35.4°F1.9°C 33.3°F0.7°C 92% 5.0 mph E8.0 kmh E 12.0 mph19.3 kmh 29.75 in1007.5 mb 0.00 in0.0 mm 0.00 in0.0 mm 0.00 in0.0 mm
12:50 AM 35.4°F1.9°C 33.6°F0.9°C 93% 5.0 mph ENE8.0 kmh ENE 11.0 mph17.7 kmh 29.75 in1007.5 mb 0.00 in0.0 mm 0.00 in0.0 mm 0.00 in0.0 mm
12:55 AM 35.2°F1.8°C 33.4°F0.8°C 93% 4.0 mph ENE6.4 kmh ENE 11.0 mph17.7 kmh 29.75 in1007.5 mb 0.00 in0.0 mm 0.00 in0.0 mm 0.00 in0.0 mm
01:00 AM 35.2°F1.8°C 33.4°F0.8°C 93% 4.0 mph ENE6.4 kmh ENE 10.0 mph16.1 kmh 29.75 in1007.5 mb 0.00 in0.0 mm 0.00 in0.0 mm 0.00 in0.0 mm
01:05 AM 35.2°F1.8°C 33.4°F0.8°C 93% 3.0 mph E4.8 kmh E 10.0 mph16.1 kmh 29.75 in1007.5 mb 0.00 in0.0 mm 0.00 in0.0 mm 0.00 in0.0 mm
01:10 AM 35.2°F1.8°C 33.4°F0.8°C 93% 3.0 mph E4.8 kmh E 9.0 mph14.5 kmh 29.75 in1007.5 mb 0.00 in0.0 mm 0.00 in0.0 mm 0.00 in0.0 mm
01:15 AM 35.2°F1.8°C 33.4°F0.8°C 93% 4.0 mph E6.4 kmh E 9.0 mph14.5 kmh 29.75 in1007.5 mb 0.00 in0.0 mm 0.00 in0.0 mm 0.00 in0.0 mm
01:20 AM 35.2°F1.8°C 33.4°F0.8°C 93% 5.0 mph ENE8.0 kmh ENE 12.0 mph19.3 kmh 29.74 in1007.1 mb 0.00 in0.0 mm 0.00 in0.0 mm 0.00 in0.0 mm
01:25 AM 35.2°F1.8°C 33.4°F0.8°C 93% 5.0 mph ENE8.0 kmh ENE 12.0 mph19.3 kmh 29.74 in1007.1 mb 0.00 in0.0 mm 0.00 in0.0 mm 0.00 in0.0 mm
01:30 AM 35.2°F1.8°C 33.4°F0.8°C 93% 5.0 mph ENE8.0 kmh ENE 12.0 mph19.3 kmh 29.74 in1007.1 mb 0.00 in0.0 mm 0.00 in0.0 mm 0.00 in0.0 mm
01:35 AM 35.4°F1.9°C 33.6°F0.9°C 93% 5.0 mph ENE8.0 kmh ENE 12.0 mph19.3 kmh 29.74 in1007.1 mb 0.00 in0.0 mm 0.00 in0.0 mm 0.00 in0.0 mm
01:40 AM 35.4°F1.9°C 33.6°F0.9°C 93% 5.0 mph ENE8.0 kmh ENE 12.0 mph19.3 kmh 29.74 in1007.1 mb 0.00 in0.0 mm 0.00 in0.0 mm 0.00 in0.0 mm
01:45 AM 35.4°F1.9°C 33.6°F0.9°C 93% 5.0 mph ENE8.0 kmh ENE 10.0 mph16.1 kmh 29.74 in1007.1 mb 0.00 in0.0 mm 0.00 in0.0 mm 0.00 in0.0 mm
01:50 AM 35.4°F1.9°C 33.6°F0.9°C 93% 4.0 mph ENE6.4 kmh ENE 7.0 mph11.3 kmh 29.73 in1006.8 mb 0.00 in0.0 mm 0.00 in0.0 mm 0.00 in0.0 mm
01:55 AM 35.4°F1.9°C 33.6°F0.9°C 93% 4.0 mph ENE6.4 kmh ENE 7.0 mph11.3 kmh 29.73 in1006.8 mb 0.00 in0.0 mm 0.00 in0.0 mm 0.00 in0.0 mm
02:00 AM 35.4°F1.9°C 33.6°F0.9°C 93% 4.0 mph ENE6.4 kmh ENE 12.0 mph19.3 kmh 29.73 in1006.8 mb 0.00 in0.0 mm 0.00 in0.0 mm 0.00 in0.0 mm
02:05 AM 35.4°F1.9°C 33.6°F0.9°C 93% 4.0 mph ENE6.4 kmh ENE 12.0 mph19.3 kmh 29.73 in1006.8 mb 0.00 in0.0 mm 0.00 in0.0 mm 0.00 in0.0 mm
02:10 AM 35.4°F1.9°C 33.6°F0.9°C 93% 4.0 mph ENE6.4 kmh ENE 9.0 mph14.5 kmh 29.73 in1006.8 mb 0.00 in0.0 mm 0.00 in0.0 mm 0.00 in0.0 mm
02:15 AM 35.4°F1.9°C 33.6°F0.9°C 93% 3.0 mph ENE4.8 kmh ENE 7.0 mph11.3 kmh 29.72 in1006.4 mb 0.00 in0.0 mm 0.00 in0.0 mm 0.00 in0.0 mm
02:20 AM 35.4°F1.9°C 33.6°F0.9°C 93% 3.0 mph ENE4.8 kmh ENE 7.0 mph11.3 kmh 29.72 in1006.4 mb 0.00 in0.0 mm 0.00 in0.0 mm 0.00 in0.0 mm
02:25 AM 35.4°F1.9°C 33.6°F0.9°C 93% 4.0 mph ENE6.4 kmh ENE 7.0 mph11.3 kmh 29.72 in1006.4 mb 0.00 in0.0 mm 0.00 in0.0 mm 0.00 in0.0 mm
02:30 AM 35.6°F2.0°C 33.8°F1.0°C 93% 3.0 mph ENE4.8 kmh ENE 7.0 mph11.3 kmh 29.73 in1006.8 mb 0.00 in0.0 mm 0.00 in0.0 mm 0.00 in0.0 mm
02:35 AM 35.6°F2.0°C 34.0°F1.1°C 94% 2.0 mph E3.2 kmh E 6.0 mph9.7 kmh 29.73 in1006.8 mb 0.00 in0.0 mm 0.00 in0.0 mm 0.00 in0.0 mm
02:40 AM 35.8°F2.1°C 34.2°F1.2°C 94% 3.0 mph E4.8 kmh E 6.0 mph9.7 kmh 29.72 in1006.4 mb 0.00 in0.0 mm 0.00 in0.0 mm 0.00 in0.0 mm
02:45 AM 35.8°F2.1°C 34.2°F1.2°C 94% 2.0 mph E3.2 kmh E 6.0 mph9.7 kmh 29.73 in1006.8 mb 0.00 in0.0 mm 0.00 in0.0 mm 0.00 in0.0 mm
02:50 AM 35.8°F2.1°C 34.2°F1.2°C 94% 1.0 mph E1.6 kmh E 4.0 mph6.4 kmh 29.73 in1006.8 mb 0.00 in0.0 mm 0.00 in0.0 mm 0.00 in0.0 mm
02:55 AM 35.8°F2.1°C 34.2°F1.2°C 94% 1.0 mph ENE1.6 kmh ENE 4.0 mph6.4 kmh 29.72 in1006.4 mb 0.00 in0.0 mm 0.00 in0.0 mm 0.00 in0.0 mm
03:00 AM 36.0°F2.2°C 34.3°F1.3°C 94% 2.0 mph ENE3.2 kmh ENE 6.0 mph9.7 kmh 29.72 in1006.4 mb 0.00 in0.0 mm 0.00 in0.0 mm 0.00 in0.0 mm
03:05 AM 36.0°F2.2°C 34.5°F1.4°C 94% 3.0 mph ENE4.8 kmh ENE 6.0 mph9.7 kmh 29.72 in1006.4 mb 0.00 in0.0 mm 0.00 in0.0 mm 0.00 in0.0 mm
03:10 AM 36.0°F2.2°C 34.5°F1.4°C 94% 2.0 mph ENE3.2 kmh ENE 6.0 mph9.7 kmh 29.72 in1006.4 mb 0.00 in0.0 mm 0.00 in0.0 mm 0.00 in0.0 mm
03:15 AM 36.0°F2.2°C 34.5°F1.4°C 94% 2.0 mph ENE3.2 kmh ENE 8.0 mph12.9 kmh 29.72 in1006.4 mb 0.00 in0.0 mm 0.00 in0.0 mm 0.00 in0.0 mm
03:20 AM 36.0°F2.2°C 34.5°F1.4°C 94% 3.0 mph ENE4.8 kmh ENE 8.0 mph12.9 kmh 29.72 in1006.4 mb 0.00 in0.0 mm 0.00 in0.0 mm 0.00 in0.0 mm
03:25 AM 36.0°F2.2°C 34.5°F1.4°C 94% 2.0 mph E3.2 kmh E 8.0 mph12.9 kmh 29.72 in1006.4 mb 0.00 in0.0 mm 0.00 in0.0 mm 0.00 in0.0 mm
03:30 AM 36.0°F2.2°C 34.5°F1.4°C 94% 1.0 mph E1.6 kmh E 5.0 mph8.0 kmh 29.72 in1006.4 mb 0.00 in0.0 mm 0.00 in0.0 mm 0.00 in0.0 mm
03:35 AM 36.0°F2.2°C 34.5°F1.4°C 94% 1.0 mph ENE1.6 kmh ENE 6.0 mph9.7 kmh 29.72 in1006.4 mb 0.00 in0.0 mm 0.00 in0.0 mm 0.00 in0.0 mm
03:40 AM 36.1°F2.3°C 34.5°F1.4°C 94% 2.0 mph ENE3.2 kmh ENE 6.0 mph9.7 kmh 29.72 in1006.4 mb 0.00 in0.0 mm 0.00 in0.0 mm 0.00 in0.0 mm
03:45 AM 36.1°F2.3°C 34.5°F1.4°C 94% 2.0 mph ENE3.2 kmh ENE 6.0 mph9.7 kmh 29.71 in1006.1 mb 0.00 in0.0 mm 0.00 in0.0 mm 0.00 in0.0 mm
03:50 AM 36.1°F2.3°C 34.5°F1.4°C 94% 3.0 mph ENE4.8 kmh ENE 6.0 mph9.7 kmh 29.71 in1006.1 mb 0.00 in0.0 mm 0.00 in0.0 mm 0.00 in0.0 mm
03:55 AM 36.1°F2.3°C 34.5°F1.4°C 94% 3.0 mph ENE4.8 kmh ENE 6.0 mph9.7 kmh 29.71 in1006.1 mb 0.00 in0.0 mm 0.00 in0.0 mm 0.00 in0.0 mm
04:00 AM 36.1°F2.3°C 34.7°F1.5°C 94% 3.0 mph ENE4.8 kmh ENE 6.0 mph9.7 kmh 29.71 in1006.1 mb 0.00 in0.0 mm 0.00 in0.0 mm 0.00 in0.0 mm
04:05 AM 36.1°F2.3°C 34.7°F1.5°C 94% 3.0 mph ENE4.8 kmh ENE 7.0 mph11.3 kmh 29.71 in1006.1 mb 0.00 in0.0 mm 0.00 in0.0 mm 0.00 in0.0 mm
04:10 AM 36.1°F2.3°C 34.7°F1.5°C 94% 3.0 mph ENE4.8 kmh ENE 7.0 mph11.3 kmh 29.71 in1006.1 mb 0.00 in0.0 mm 0.00 in0.0 mm 0.00 in0.0 mm
04:15 AM 36.1°F2.3°C 34.5°F1.4°C 94% 3.0 mph ENE4.8 kmh ENE 8.0 mph12.9 kmh 29.71 in1006.1 mb 0.00 in0.0 mm 0.00 in0.0 mm 0.00 in0.0 mm
04:20 AM 36.0°F2.2°C 34.5°F1.4°C 94% 4.0 mph ENE6.4 kmh ENE 10.0 mph16.1 kmh 29.71 in1006.1 mb 0.00 in0.0 mm 0.00 in0.0 mm 0.00 in0.0 mm
04:25 AM 36.1°F2.3°C 34.5°F1.4°C 94% 4.0 mph ENE6.4 kmh ENE 10.0 mph16.1 kmh 29.71 in1006.1 mb 0.00 in0.0 mm 0.00 in0.0 mm 0.00 in0.0 mm
04:30 AM 36.1°F2.3°C 34.5°F1.4°C 94% 4.0 mph ENE6.4 kmh ENE 10.0 mph16.1 kmh 29.71 in1006.1 mb 0.00 in0.0 mm 0.00 in0.0 mm 0.00 in0.0 mm
04:35 AM 36.1°F2.3°C 34.7°F1.5°C 94% 4.0 mph ENE6.4 kmh ENE 10.0 mph16.1 kmh 29.71 in1006.1 mb 0.00 in0.0 mm 0.00 in0.0 mm 0.00 in0.0 mm
04:40 AM 36.1°F2.3°C 34.7°F1.5°C 94% 5.0 mph ENE8.0 kmh ENE 10.0 mph16.1 kmh 29.71 in1006.1 mb 0.00 in0.0 mm 0.00 in0.0 mm 0.00 in0.0 mm
04:45 AM 36.3°F2.4°C 34.7°F1.5°C 94% 4.0 mph ENE6.4 kmh ENE 8.0 mph12.9 kmh 29.71 in1006.1 mb 0.00 in0.0 mm 0.00 in0.0 mm 0.00 in0.0 mm
04:50 AM 36.3°F2.4°C 34.7°F1.5°C 94% 4.0 mph ENE6.4 kmh ENE 12.0 mph19.3 kmh 29.70 in1005.8 mb 0.00 in0.0 mm 0.00 in0.0 mm 0.00 in0.0 mm
04:55 AM 36.3°F2.4°C 34.7°F1.5°C 94% 6.0 mph ENE9.7 kmh ENE 12.0 mph19.3 kmh 29.70 in1005.8 mb 0.00 in0.0 mm 0.00 in0.0 mm 0.00 in0.0 mm
05:00 AM 36.3°F2.4°C 34.7°F1.5°C 94% 5.0 mph ENE8.0 kmh ENE 11.0 mph17.7 kmh 29.70 in1005.8 mb 0.00 in0.0 mm 0.00 in0.0 mm 0.00 in0.0 mm
05:05 AM 36.3°F2.4°C 34.7°F1.5°C 94% 5.0 mph ENE8.0 kmh ENE 11.0 mph17.7 kmh 29.70 in1005.8 mb 0.00 in0.0 mm 0.00 in0.0 mm 0.00 in0.0 mm
05:10 AM 36.3°F2.4°C 34.7°F1.5°C 94% 6.0 mph ENE9.7 kmh ENE 12.0 mph19.3 kmh 29.70 in1005.8 mb 0.00 in0.0 mm 0.00 in0.0 mm 0.00 in0.0 mm
05:15 AM 36.3°F2.4°C 34.7°F1.5°C 94% 6.0 mph ENE9.7 kmh ENE 12.0 mph19.3 kmh 29.70 in1005.8 mb 0.00 in0.0 mm 0.00 in0.0 mm 0.00 in0.0 mm
05:20 AM 36.3°F2.4°C 34.7°F1.5°C 94% 5.0 mph ENE8.0 kmh ENE 12.0 mph19.3 kmh 29.70 in1005.8 mb 0.00 in0.0 mm 0.00 in0.0 mm 0.00 in0.0 mm
05:25 AM 36.3°F2.4°C 34.9°F1.6°C 94% 4.0 mph ENE6.4 kmh ENE 10.0 mph16.1 kmh 29.69 in1005.4 mb 0.00 in0.0 mm 0.00 in0.0 mm 0.00 in0.0 mm
05:30 AM 36.3°F2.4°C 34.9°F1.6°C 94% 5.0 mph ENE8.0 kmh ENE 11.0 mph17.7 kmh 29.69 in1005.4 mb 0.00 in0.0 mm 0.00 in0.0 mm 0.00 in0.0 mm
05:35 AM 36.3°F2.4°C 34.9°F1.6°C 94% 6.0 mph ENE9.7 kmh ENE 14.0 mph22.5 kmh 29.69 in1005.4 mb 0.00 in0.0 mm 0.00 in0.0 mm 0.00 in0.0 mm
05:40 AM 36.3°F2.4°C 34.7°F1.5°C 94% 6.0 mph ENE9.7 kmh ENE 14.0 mph22.5 kmh 29.69 in1005.4 mb 0.00 in0.0 mm 0.00 in0.0 mm 0.00 in0.0 mm
05:45 AM 36.3°F2.4°C 34.7°F1.5°C 94% 6.0 mph ENE9.7 kmh ENE 12.0 mph19.3 kmh 29.69 in1005.4 mb 0.00 in0.0 mm 0.00 in0.0 mm 0.00 in0.0 mm
05:50 AM 36.3°F2.4°C 34.7°F1.5°C 94% 6.0 mph ENE9.7 kmh ENE 12.0 mph19.3 kmh 29.69 in1005.4 mb 0.00 in0.0 mm 0.00 in0.0 mm 0.00 in0.0 mm
05:55 AM 36.3°F2.4°C 34.7°F1.5°C 94% 6.0 mph ENE9.7 kmh ENE 14.0 mph22.5 kmh 29.69 in1005.4 mb 0.00 in0.0 mm 0.00 in0.0 mm 0.00 in0.0 mm
06:00 AM 36.3°F2.4°C 34.7°F1.5°C 94% 6.0 mph ENE9.7 kmh ENE 14.0 mph22.5 kmh 29.69 in1005.4 mb 0.00 in0.0 mm 0.00 in0.0 mm 0.00 in0.0 mm
06:05 AM 36.3°F2.4°C 34.7°F1.5°C 94% 5.0 mph ENE8.0 kmh ENE 12.0 mph19.3 kmh 29.69 in1005.4 mb 0.00 in0.0 mm 0.00 in0.0 mm 0.00 in0.0 mm
06:10 AM 36.3°F2.4°C 34.7°F1.5°C 94% 5.0 mph ENE8.0 kmh ENE 12.0 mph19.3 kmh 29.69 in1005.4 mb 0.00 in0.0 mm 0.00 in0.0 mm 0.00 in0.0 mm
06:15 AM 36.1°F2.3°C 34.7°F1.5°C 94% 5.0 mph ENE8.0 kmh ENE 12.0 mph19.3 kmh 29.69 in1005.4 mb 0.00 in0.0 mm 0.00 in0.0 mm 0.00 in0.0 mm
06:20 AM 36.1°F2.3°C 34.7°F1.5°C 94% 5.0 mph ENE8.0 kmh ENE 11.0 mph17.7 kmh 29.69 in1005.4 mb 0.00 in0.0 mm 0.00 in0.0 mm 0.00 in0.0 mm
06:25 AM 36.1°F2.3°C 34.9°F1.6°C 95% 6.0 mph ENE9.7 kmh ENE 14.0 mph22.5 kmh 29.69 in1005.4 mb 0.00 in0.0 mm 0.00 in0.0 mm 0.00 in0.0 mm
06:30 AM 36.1°F2.3°C 34.9°F1.6°C 95% 6.0 mph ENE9.7 kmh ENE 14.0 mph22.5 kmh 29.69 in1005.4 mb 0.00 in0.0 mm 0.00 in0.0 mm 0.00 in0.0 mm
06:35 AM 36.1°F2.3°C 34.9°F1.6°C 95% 5.0 mph ENE8.0 kmh ENE 12.0 mph19.3 kmh 29.69 in1005.4 mb 0.00 in0.0 mm 0.00 in0.0 mm 0.00 in0.0 mm
06:40 AM 36.1°F2.3°C 34.9°F1.6°C 95% 4.0 mph E6.4 kmh E 12.0 mph19.3 kmh 29.70 in1005.8 mb 0.00 in0.0 mm 0.00 in0.0 mm 0.00 in0.0 mm
06:45 AM 36.1°F2.3°C 34.9°F1.6°C 95% 3.0 mph E4.8 kmh E 7.0 mph11.3 kmh 29.69 in1005.4 mb 0.01 in0.3 mm 0.12 in3.0 mm 0.01 in0.3 mm
06:50 AM 36.3°F2.4°C 35.1°F1.7°C 95% 4.0 mph ENE6.4 kmh ENE 8.0 mph12.9 kmh 29.69 in1005.4 mb 0.01 in0.3 mm 0.00 in0.0 mm 0.01 in0.3 mm
06:55 AM 36.1°F2.3°C 34.9°F1.6°C 95% 5.0 mph ENE8.0 kmh ENE 10.0 mph16.1 kmh 29.69 in1005.4 mb 0.01 in0.3 mm 0.00 in0.0 mm 0.01 in0.3 mm
07:00 AM 36.1°F2.3°C 34.9°F1.6°C 95% 5.0 mph ENE8.0 kmh ENE 10.0 mph16.1 kmh 29.69 in1005.4 mb 0.02 in0.5 mm 0.01 in0.3 mm 0.02 in0.5 mm
07:05 AM 36.1°F2.3°C 34.9°F1.6°C 95% 5.0 mph ENE8.0 kmh ENE 9.0 mph14.5 kmh 29.68 in1005.1 mb 0.02 in0.5 mm 0.00 in0.0 mm 0.02 in0.5 mm
07:10 AM 36.1°F2.3°C 34.9°F1.6°C 95% 5.0 mph ENE8.0 kmh ENE 9.0 mph14.5 kmh 29.68 in1005.1 mb 0.02 in0.5 mm 0.00 in0.0 mm 0.02 in0.5 mm
07:15 AM 36.1°F2.3°C 34.9°F1.6°C 95% 4.0 mph ENE6.4 kmh ENE 9.0 mph14.5 kmh 29.69 in1005.4 mb 0.02 in0.5 mm 0.00 in0.0 mm 0.02 in0.5 mm
07:20 AM 36.1°F2.3°C 34.9°F1.6°C 95% 4.0 mph ENE6.4 kmh ENE 10.0 mph16.1 kmh 29.69 in1005.4 mb 0.02 in0.5 mm 0.00 in0.0 mm 0.02 in0.5 mm
07:25 AM 36.3°F2.4°C 35.1°F1.7°C 95% 5.0 mph ENE8.0 kmh ENE 11.0 mph17.7 kmh 29.68 in1005.1 mb 0.02 in0.5 mm 0.00 in0.0 mm 0.02 in0.5 mm
07:30 AM 36.3°F2.4°C 35.1°F1.7°C 95% 5.0 mph ENE8.0 kmh ENE 12.0 mph19.3 kmh 29.68 in1005.1 mb 0.03 in0.8 mm 0.12 in3.0 mm 0.03 in0.8 mm
07:35 AM 36.3°F2.4°C 35.1°F1.7°C 95% 6.0 mph ENE9.7 kmh ENE 14.0 mph22.5 kmh 29.68 in1005.1 mb 0.04 in1.0 mm 0.12 in3.0 mm 0.04 in1.0 mm
07:40 AM 36.3°F2.4°C 35.1°F1.7°C 95% 6.0 mph ENE9.7 kmh ENE 14.0 mph22.5 kmh 29.68 in1005.1 mb 0.04 in1.0 mm 0.00 in0.0 mm 0.04 in1.0 mm
07:45 AM 36.3°F2.4°C 35.1°F1.7°C 95% 6.0 mph ENE9.7 kmh ENE 12.0 mph19.3 kmh 29.68 in1005.1 mb 0.04 in1.0 mm 0.00 in0.0 mm 0.05 in1.3 mm
07:50 AM 36.3°F2.4°C 35.1°F1.7°C 95% 4.0 mph ENE6.4 kmh ENE 11.0 mph17.7 kmh 29.68 in1005.1 mb 0.04 in1.0 mm 0.00 in0.0 mm 0.05 in1.3 mm
07:55 AM 36.3°F2.4°C 35.4°F1.9°C 96% 4.0 mph ENE6.4 kmh ENE 9.0 mph14.5 kmh 29.68 in1005.1 mb 0.03 in0.8 mm 0.00 in0.0 mm 0.05 in1.3 mm
08:00 AM 36.3°F2.4°C 35.4°F1.9°C 96% 5.0 mph ENE8.0 kmh ENE 9.0 mph14.5 kmh 29.68 in1005.1 mb 0.03 in0.8 mm 0.00 in0.0 mm 0.05 in1.3 mm
08:05 AM 36.5°F2.5°C 35.4°F1.9°C 96% 6.0 mph ENE9.7 kmh ENE 11.0 mph17.7 kmh 29.67 in1004.7 mb 0.04 in1.0 mm 0.12 in3.0 mm 0.06 in1.5 mm
08:10 AM 36.5°F2.5°C 35.4°F1.9°C 96% 6.0 mph ENE9.7 kmh ENE 11.0 mph17.7 kmh 29.67 in1004.7 mb 0.04 in1.0 mm 0.00 in0.0 mm 0.06 in1.5 mm
08:15 AM 36.5°F2.5°C 35.4°F1.9°C 96% 6.0 mph ENE9.7 kmh ENE 10.0 mph16.1 kmh 29.67 in1004.7 mb 0.05 in1.3 mm 0.12 in3.0 mm 0.06 in1.5 mm
08:20 AM 36.7°F2.6°C 35.6°F2.0°C 96% 6.0 mph ENE9.7 kmh ENE 12.0 mph19.3 kmh 29.67 in1004.7 mb 0.04 in1.0 mm 0.00 in0.0 mm 0.06 in1.5 mm
08:25 AM 36.7°F2.6°C 35.6°F2.0°C 96% 7.0 mph ENE11.3 kmh ENE 13.0 mph20.9 kmh 29.66 in1004.4 mb 0.04 in1.0 mm 0.00 in0.0 mm 0.06 in1.5 mm
08:30 AM 36.7°F2.6°C 35.6°F2.0°C 96% 7.0 mph ENE11.3 kmh ENE 14.0 mph22.5 kmh 29.66 in1004.4 mb 0.03 in0.8 mm 0.00 in0.0 mm 0.06 in1.5 mm
08:35 AM 36.7°F2.6°C 35.6°F2.0°C 96% 8.0 mph ENE12.9 kmh ENE 18.0 mph29.0 kmh 29.66 in1004.4 mb 0.03 in0.8 mm 0.00 in0.0 mm 0.07 in1.8 mm
08:40 AM 36.7°F2.6°C 35.6°F2.0°C 96% 8.0 mph ENE12.9 kmh ENE 18.0 mph29.0 kmh 29.66 in1004.4 mb 0.02 in0.5 mm 0.00 in0.0 mm 0.07 in1.8 mm
08:45 AM 36.7°F2.6°C 35.6°F2.0°C 96% 8.0 mph ENE12.9 kmh ENE 17.0 mph27.4 kmh 29.66 in1004.4 mb 0.02 in0.5 mm 0.00 in0.0 mm 0.07 in1.8 mm
08:50 AM 36.9°F2.7°C 35.8°F2.1°C 96% 8.0 mph ENE12.9 kmh ENE 17.0 mph27.4 kmh 29.66 in1004.4 mb 0.02 in0.5 mm 0.00 in0.0 mm 0.07 in1.8 mm
08:55 AM 36.9°F2.7°C 35.8°F2.1°C 96% 8.0 mph ENE12.9 kmh ENE 16.0 mph25.7 kmh 29.66 in1004.4 mb 0.02 in0.5 mm 0.00 in0.0 mm 0.07 in1.8 mm
09:00 AM 36.9°F2.7°C 35.8°F2.1°C 96% 7.0 mph ENE11.3 kmh ENE 16.0 mph25.7 kmh 29.65 in1004.1 mb 0.02 in0.5 mm 0.00 in0.0 mm 0.07 in1.8 mm
09:05 AM 36.9°F2.7°C 35.8°F2.1°C 96% 7.0 mph ENE11.3 kmh ENE 16.0 mph25.7 kmh 29.65 in1004.1 mb 0.02 in0.5 mm 0.00 in0.0 mm 0.08 in2.0 mm
09:10 AM 36.9°F2.7°C 35.8°F2.1°C 96% 8.0 mph ENE12.9 kmh ENE 16.0 mph25.7 kmh 29.65 in1004.1 mb 0.02 in0.5 mm 0.00 in0.0 mm 0.08 in2.0 mm
09:15 AM 37.0°F2.8°C 36.0°F2.2°C 96% 7.0 mph ENE11.3 kmh ENE 15.0 mph24.1 kmh 29.65 in1004.1 mb 0.02 in0.5 mm 0.00 in0.0 mm 0.08 in2.0 mm
09:20 AM 37.0°F2.8°C 36.0°F2.2°C 96% 7.0 mph ENE11.3 kmh ENE 14.0 mph22.5 kmh 29.65 in1004.1 mb 0.02 in0.5 mm 0.00 in0.0 mm 0.08 in2.0 mm
09:25 AM 37.0°F2.8°C 36.1°F2.3°C 96% 7.0 mph ENE11.3 kmh ENE 14.0 mph22.5 kmh 29.65 in1004.1 mb 0.02 in0.5 mm 0.00 in0.0 mm 0.08 in2.0 mm
09:30 AM 37.0°F2.8°C 36.1°F2.3°C 96% 7.0 mph ENE11.3 kmh ENE 13.0 mph20.9 kmh 29.65 in1004.1 mb 0.02 in0.5 mm 0.00 in0.0 mm 0.08 in2.0 mm
09:35 AM 37.2°F2.9°C 36.1°F2.3°C 96% 6.0 mph ENE9.7 kmh ENE 12.0 mph19.3 kmh 29.65 in1004.1 mb 0.01 in0.3 mm 0.00 in0.0 mm 0.08 in2.0 mm
09:40 AM 37.2°F2.9°C 36.1°F2.3°C 96% 7.0 mph ENE11.3 kmh ENE 16.0 mph25.7 kmh 29.65 in1004.1 mb 0.01 in0.3 mm 0.00 in0.0 mm 0.08 in2.0 mm
09:45 AM 37.2°F2.9°C 36.1°F2.3°C 96% 6.0 mph ENE9.7 kmh ENE 16.0 mph25.7 kmh 29.65 in1004.1 mb 0.01 in0.3 mm 0.00 in0.0 mm 0.08 in2.0 mm
09:50 AM 37.2°F2.9°C 36.1°F2.3°C 96% 5.0 mph ENE8.0 kmh ENE 11.0 mph17.7 kmh 29.65 in1004.1 mb 0.01 in0.3 mm 0.00 in0.0 mm 0.08 in2.0 mm
09:55 AM 37.2°F2.9°C 36.3°F2.4°C 96% 5.0 mph E8.0 kmh E 10.0 mph16.1 kmh 29.65 in1004.1 mb 0.01 in0.3 mm 0.00 in0.0 mm 0.08 in2.0 mm
10:00 AM 37.2°F2.9°C 36.3°F2.4°C 96% 4.0 mph E6.4 kmh E 10.0 mph16.1 kmh 29.65 in1004.1 mb 0.01 in0.3 mm 0.00 in0.0 mm 0.08 in2.0 mm
10:05 AM 37.4°F3.0°C 36.3°F2.4°C 96% 4.0 mph E6.4 kmh E 10.0 mph16.1 kmh 29.65 in1004.1 mb 0.00 in0.0 mm 0.00 in0.0 mm 0.08 in2.0 mm
10:10 AM 37.4°F3.0°C 36.3°F2.4°C 96% 3.0 mph E4.8 kmh E 8.0 mph12.9 kmh 29.64 in1003.7 mb 0.00 in0.0 mm 0.00 in0.0 mm 0.08 in2.0 mm
10:15 AM 37.6°F3.1°C 36.5°F2.5°C 96% 3.0 mph E4.8 kmh E 6.0 mph9.7 kmh 29.64 in1003.7 mb 0.00 in0.0 mm 0.00 in0.0 mm 0.08 in2.0 mm
10:20 AM 37.8°F3.2°C 36.7°F2.6°C 96% 2.0 mph E3.2 kmh E 6.0 mph9.7 kmh 29.64 in1003.7 mb 0.00 in0.0 mm 0.00 in0.0 mm 0.08 in2.0 mm
10:25 AM 37.8°F3.2°C 36.7°F2.6°C 96% 2.0 mph E3.2 kmh E 9.0 mph14.5 kmh 29.64 in1003.7 mb 0.01 in0.3 mm 0.12 in3.0 mm 0.09 in2.3 mm
10:30 AM 37.8°F3.2°C 36.7°F2.6°C 96% 3.0 mph E4.8 kmh E 9.0 mph14.5 kmh 29.64 in1003.7 mb 0.01 in0.3 mm 0.00 in0.0 mm 0.09 in2.3 mm
10:35 AM 37.9°F3.3°C 36.9°F2.7°C 96% 4.0 mph E6.4 kmh E 8.0 mph12.9 kmh 29.64 in1003.7 mb 0.02 in0.5 mm 0.12 in3.0 mm 0.09 in2.3 mm
10:40 AM 37.9°F3.3°C 36.9°F2.7°C 96% 4.0 mph E6.4 kmh E 11.0 mph17.7 kmh 29.64 in1003.7 mb 0.02 in0.5 mm 0.00 in0.0 mm 0.10 in2.5 mm
10:45 AM 37.9°F3.3°C 37.0°F2.8°C 96% 4.0 mph E6.4 kmh E 11.0 mph17.7 kmh 29.64 in1003.7 mb 0.02 in0.5 mm 0.00 in0.0 mm 0.10 in2.5 mm
10:50 AM 37.9°F3.3°C 37.0°F2.8°C 96% 4.0 mph E6.4 kmh E 10.0 mph16.1 kmh 29.64 in1003.7 mb 0.03 in0.8 mm 0.12 in3.0 mm 0.11 in2.8 mm
10:55 AM 38.1°F3.4°C 37.0°F2.8°C 96% 4.0 mph E6.4 kmh E 10.0 mph16.1 kmh 29.63 in1003.4 mb 0.03 in0.8 mm 0.00 in0.0 mm 0.11 in2.8 mm
11:00 AM 38.1°F3.4°C 37.2°F2.9°C 96% 4.0 mph E6.4 kmh E 10.0 mph16.1 kmh 29.63 in1003.4 mb 0.04 in1.0 mm 0.01 in0.3 mm 0.12 in3.0 mm
11:05 AM 38.1°F3.4°C 37.2°F2.9°C 96% 3.0 mph E4.8 kmh E 8.0 mph12.9 kmh 29.63 in1003.4 mb 0.05 in1.3 mm 0.12 in3.0 mm 0.13 in3.3 mm
11:10 AM 38.3°F3.5°C 37.2°F2.9°C 96% 4.0 mph E6.4 kmh E 9.0 mph14.5 kmh 29.63 in1003.4 mb 0.06 in1.5 mm 0.12 in3.0 mm 0.13 in3.3 mm
11:15 AM 38.3°F3.5°C 37.2°F2.9°C 96% 4.0 mph E6.4 kmh E 9.0 mph14.5 kmh 29.63 in1003.4 mb 0.06 in1.5 mm 0.00 in0.0 mm 0.14 in3.6 mm
11:20 AM 38.5°F3.6°C 37.4°F3.0°C 96% 4.0 mph E6.4 kmh E 8.0 mph12.9 kmh 29.62 in1003.0 mb 0.07 in1.8 mm 0.12 in3.0 mm 0.15 in3.8 mm
11:25 AM 38.5°F3.6°C 37.4°F3.0°C 96% 4.0 mph ENE6.4 kmh ENE 9.0 mph14.5 kmh 29.62 in1003.0 mb 0.07 in1.8 mm 0.00 in0.0 mm 0.16 in4.1 mm
11:30 AM 38.5°F3.6°C 37.4°F3.0°C 96% 4.0 mph ENE6.4 kmh ENE 11.0 mph17.7 kmh 29.62 in1003.0 mb 0.08 in2.0 mm 0.12 in3.0 mm 0.17 in4.3 mm
11:35 AM 38.5°F3.6°C 37.4°F3.0°C 96% 4.0 mph ENE6.4 kmh ENE 11.0 mph17.7 kmh 29.62 in1003.0 mb 0.07 in1.8 mm 0.00 in0.0 mm 0.17 in4.3 mm
11:40 AM 38.5°F3.6°C 37.4°F3.0°C 96% 4.0 mph ENE6.4 kmh ENE 8.0 mph12.9 kmh 29.61 in1002.7 mb 0.07 in1.8 mm 0.00 in0.0 mm 0.17 in4.3 mm
11:45 AM 38.7°F3.7°C 37.6°F3.1°C 96% 4.0 mph ENE6.4 kmh ENE 8.0 mph12.9 kmh 29.61 in1002.7 mb 0.08 in2.0 mm 0.12 in3.0 mm 0.18 in4.6 mm
11:50 AM 38.7°F3.7°C 37.6°F3.1°C 96% 4.0 mph ENE6.4 kmh ENE 9.0 mph14.5 kmh 29.61 in1002.7 mb 0.07 in1.8 mm 0.00 in0.0 mm 0.18 in4.6 mm
11:55 AM 38.7°F3.7°C 37.6°F3.1°C 96% 5.0 mph ENE8.0 kmh ENE 10.0 mph16.1 kmh 29.61 in1002.7 mb 0.07 in1.8 mm 0.00 in0.0 mm 0.19 in4.8 mm
12:00 PM 38.7°F3.7°C 37.6°F3.1°C 96% 5.0 mph ENE8.0 kmh ENE 10.0 mph16.1 kmh 29.61 in1002.7 mb 0.08 in2.0 mm 0.01 in0.3 mm 0.20 in5.1 mm
12:05 PM 38.7°F3.7°C 37.6°F3.1°C 96% 4.0 mph ENE6.4 kmh ENE 9.0 mph14.5 kmh 29.61 in1002.7 mb 0.08 in2.0 mm 0.00 in0.0 mm 0.20 in5.1 mm
12:10 PM 38.7°F3.7°C 37.6°F3.1°C 96% 4.0 mph ENE6.4 kmh ENE 9.0 mph14.5 kmh 29.61 in1002.7 mb 0.08 in2.0 mm 0.00 in0.0 mm 0.22 in5.6 mm
12:15 PM 38.8°F3.8°C 37.8°F3.2°C 96% 4.0 mph ENE6.4 kmh ENE 8.0 mph12.9 kmh 29.60 in1002.4 mb 0.09 in2.3 mm 0.12 in3.0 mm 0.23 in5.8 mm
12:20 PM 38.8°F3.8°C 37.8°F3.2°C 96% 4.0 mph ENE6.4 kmh ENE 9.0 mph14.5 kmh 29.60 in1002.4 mb 0.09 in2.3 mm 0.00 in0.0 mm 0.24 in6.1 mm
12:25 PM 38.7°F3.7°C 37.6°F3.1°C 96% 5.0 mph ENE8.0 kmh ENE 9.0 mph14.5 kmh 29.60 in1002.4 mb 0.09 in2.3 mm 0.00 in0.0 mm 0.24 in6.1 mm
12:30 PM 38.8°F3.8°C 37.8°F3.2°C 96% 4.0 mph ENE6.4 kmh ENE 9.0 mph14.5 kmh 29.60 in1002.4 mb 0.08 in2.0 mm 0.00 in0.0 mm 0.24 in6.1 mm
12:35 PM 38.8°F3.8°C 37.8°F3.2°C 96% 4.0 mph ENE6.4 kmh ENE 8.0 mph12.9 kmh 29.59 in1002.0 mb 0.09 in2.3 mm 0.12 in3.0 mm 0.25 in6.4 mm
12:40 PM 38.8°F3.8°C 37.9°F3.3°C 96% 4.0 mph ENE6.4 kmh ENE 8.0 mph12.9 kmh 29.59 in1002.0 mb 0.09 in2.3 mm 0.00 in0.0 mm 0.26 in6.6 mm
12:45 PM 38.8°F3.8°C 37.8°F3.2°C 96% 5.0 mph ENE8.0 kmh ENE 9.0 mph14.5 kmh 29.59 in1002.0 mb 0.09 in2.3 mm 0.00 in0.0 mm 0.27 in6.9 mm
12:50 PM 38.8°F3.8°C 37.8°F3.2°C 96% 5.0 mph ENE8.0 kmh ENE 10.0 mph16.1 kmh 29.59 in1002.0 mb 0.08 in2.0 mm 0.00 in0.0 mm 0.27 in6.9 mm
12:55 PM 38.8°F3.8°C 37.8°F3.2°C 96% 5.0 mph ENE8.0 kmh ENE 11.0 mph17.7 kmh 29.59 in1002.0 mb 0.09 in2.3 mm 0.12 in3.0 mm 0.28 in7.1 mm
01:00 PM 38.7°F3.7°C 37.6°F3.1°C 96% 5.0 mph NE8.0 kmh NE 11.0 mph17.7 kmh 29.59 in1002.0 mb 0.09 in2.3 mm 0.00 in0.0 mm 0.28 in7.1 mm
01:05 PM 38.7°F3.7°C 37.6°F3.1°C 96% 5.0 mph NE8.0 kmh NE 9.0 mph14.5 kmh 29.58 in1001.7 mb 0.07 in1.8 mm 0.00 in0.0 mm 0.28 in7.1 mm
01:10 PM 38.5°F3.6°C 37.4°F3.0°C 96% 5.0 mph NE8.0 kmh NE 12.0 mph19.3 kmh 29.58 in1001.7 mb 0.07 in1.8 mm 0.00 in0.0 mm 0.29 in7.4 mm
01:15 PM 38.1°F3.4°C 37.2°F2.9°C 96% 5.0 mph NE8.0 kmh NE 12.0 mph19.3 kmh 29.58 in1001.7 mb 0.06 in1.5 mm 0.00 in0.0 mm 0.29 in7.4 mm
01:20 PM 37.8°F3.2°C 36.7°F2.6°C 96% 5.0 mph NE8.0 kmh NE 10.0 mph16.1 kmh 29.58 in1001.7 mb 0.06 in1.5 mm 0.00 in0.0 mm 0.30 in7.6 mm
01:25 PM 37.6°F3.1°C 36.5°F2.5°C 96% 5.0 mph NE8.0 kmh NE 11.0 mph17.7 kmh 29.57 in1001.4 mb 0.06 in1.5 mm 0.00 in0.0 mm 0.30 in7.6 mm
01:30 PM 37.6°F3.1°C 36.5°F2.5°C 96% 5.0 mph NE8.0 kmh NE 11.0 mph17.7 kmh 29.58 in1001.7 mb 0.06 in1.5 mm 0.00 in0.0 mm 0.30 in7.6 mm
01:35 PM 37.0°F2.8°C 36.1°F2.3°C 96% 5.0 mph NE8.0 kmh NE 10.0 mph16.1 kmh 29.57 in1001.4 mb 0.06 in1.5 mm 0.00 in0.0 mm 0.31 in7.9 mm
01:40 PM 37.0°F2.8°C 36.0°F2.2°C 96% 5.0 mph NE8.0 kmh NE 10.0 mph16.1 kmh 29.57 in1001.4 mb 0.06 in1.5 mm 0.00 in0.0 mm 0.31 in7.9 mm
01:45 PM 36.9°F2.7°C 35.8°F2.1°C 96% 5.0 mph NE8.0 kmh NE 11.0 mph17.7 kmh 29.57 in1001.4 mb 0.05 in1.3 mm 0.00 in0.0 mm 0.31 in7.9 mm
01:50 PM 36.7°F2.6°C 35.6°F2.0°C 96% 5.0 mph NE8.0 kmh NE 11.0 mph17.7 kmh 29.57 in1001.4 mb 0.06 in1.5 mm 0.12 in3.0 mm 0.32 in8.1 mm
01:55 PM 36.7°F2.6°C 35.6°F2.0°C 96% 5.0 mph NE8.0 kmh NE 11.0 mph17.7 kmh 29.57 in1001.4 mb 0.05 in1.3 mm 0.00 in0.0 mm 0.32 in8.1 mm
02:00 PM 36.5°F2.5°C 35.4°F1.9°C 96% 6.0 mph NE9.7 kmh NE 13.0 mph20.9 kmh 29.57 in1001.4 mb 0.05 in1.3 mm 0.00 in0.0 mm 0.33 in8.4 mm
02:05 PM 36.3°F2.4°C 35.4°F1.9°C 96% 6.0 mph NE9.7 kmh NE 14.0 mph22.5 kmh 29.57 in1001.4 mb 0.05 in1.3 mm 0.00 in0.0 mm 0.33 in8.4 mm
02:10 PM 36.3°F2.4°C 35.2°F1.8°C 96% 5.0 mph NE8.0 kmh NE 14.0 mph22.5 kmh 29.57 in1001.4 mb 0.04 in1.0 mm 0.00 in0.0 mm 0.33 in8.4 mm
02:15 PM 36.0°F2.2°C 34.9°F1.6°C 96% 5.0 mph NE8.0 kmh NE 12.0 mph19.3 kmh 29.57 in1001.4 mb 0.05 in1.3 mm 0.12 in3.0 mm 0.34 in8.6 mm
02:20 PM 35.6°F2.0°C 34.3°F1.3°C 95% 5.0 mph NE8.0 kmh NE 12.0 mph19.3 kmh 29.57 in1001.4 mb 0.04 in1.0 mm 0.00 in0.0 mm 0.34 in8.6 mm
02:25 PM 35.2°F1.8°C 34.0°F1.1°C 95% 5.0 mph NE8.0 kmh NE 11.0 mph17.7 kmh 29.57 in1001.4 mb 0.05 in1.3 mm 0.12 in3.0 mm 0.35 in8.9 mm
02:30 PM 35.1°F1.7°C 34.2°F1.2°C 96% 5.0 mph NE8.0 kmh NE 11.0 mph17.7 kmh 29.57 in1001.4 mb 0.05 in1.3 mm 0.00 in0.0 mm 0.35 in8.9 mm
02:35 PM 35.1°F1.7°C 34.2°F1.2°C 96% 5.0 mph NE8.0 kmh NE 11.0 mph17.7 kmh 29.56 in1001.0 mb 0.05 in1.3 mm 0.00 in0.0 mm 0.35 in8.9 mm
02:40 PM 34.9°F1.6°C 33.8°F1.0°C 96% 4.0 mph NE6.4 kmh NE 10.0 mph16.1 kmh 29.57 in1001.4 mb 0.04 in1.0 mm 0.00 in0.0 mm 0.35 in8.9 mm
02:45 PM 34.9°F1.6°C 33.8°F1.0°C 96% 5.0 mph NE8.0 kmh NE 12.0 mph19.3 kmh 29.56 in1001.0 mb 0.05 in1.3 mm 0.12 in3.0 mm 0.36 in9.1 mm
02:50 PM 34.5°F1.4°C 33.6°F0.9°C 96% 6.0 mph NE9.7 kmh NE 16.0 mph25.7 kmh 29.56 in1001.0 mb 0.04 in1.0 mm 0.00 in0.0 mm 0.36 in9.1 mm
02:55 PM 34.5°F1.4°C 33.6°F0.9°C 96% 7.0 mph NE11.3 kmh NE 16.0 mph25.7 kmh 29.56 in1001.0 mb 0.05 in1.3 mm 0.12 in3.0 mm 0.37 in9.4 mm
03:00 PM 34.5°F1.4°C 33.4°F0.8°C 96% 7.0 mph NE11.3 kmh NE 14.0 mph22.5 kmh 29.56 in1001.0 mb 0.04 in1.0 mm 0.00 in0.0 mm 0.37 in9.4 mm
03:05 PM 34.5°F1.4°C 33.4°F0.8°C 96% 7.0 mph NE11.3 kmh NE 14.0 mph22.5 kmh 29.56 in1001.0 mb 0.05 in1.3 mm 0.12 in3.0 mm 0.38 in9.7 mm
03:10 PM 34.5°F1.4°C 33.4°F0.8°C 96% 6.0 mph NE9.7 kmh NE 13.0 mph20.9 kmh 29.56 in1001.0 mb 0.06 in1.5 mm 0.12 in3.0 mm 0.39 in9.9 mm
03:15 PM 34.3°F1.3°C 33.3°F0.7°C 96% 5.0 mph NE8.0 kmh NE 13.0 mph20.9 kmh 29.55 in1000.7 mb 0.06 in1.5 mm 0.00 in0.0 mm 0.39 in9.9 mm
03:20 PM 34.2°F1.2°C 33.3°F0.7°C 96% 5.0 mph NE8.0 kmh NE 13.0 mph20.9 kmh 29.55 in1000.7 mb 0.06 in1.5 mm 0.00 in0.0 mm 0.39 in9.9 mm
03:25 PM 34.2°F1.2°C 33.1°F0.6°C 96% 6.0 mph NE9.7 kmh NE 14.0 mph22.5 kmh 29.55 in1000.7 mb 0.06 in1.5 mm 0.00 in0.0 mm 0.40 in10.2 mm
03:30 PM 34.2°F1.2°C 33.1°F0.6°C 96% 7.0 mph NE11.3 kmh NE 14.0 mph22.5 kmh 29.55 in1000.7 mb 0.06 in1.5 mm 0.00 in0.0 mm 0.41 in10.4 mm
03:35 PM 34.0°F1.1°C 32.9°F0.5°C 96% 6.0 mph NE9.7 kmh NE 14.0 mph22.5 kmh 29.55 in1000.7 mb 0.06 in1.5 mm 0.00 in0.0 mm 0.41 in10.4 mm
03:40 PM 34.0°F1.1°C 32.9°F0.5°C 96% 6.0 mph NE9.7 kmh NE 13.0 mph20.9 kmh 29.55 in1000.7 mb 0.06 in1.5 mm 0.00 in0.0 mm 0.41 in10.4 mm
03:45 PM 34.0°F1.1°C 32.9°F0.5°C 96% 6.0 mph NE9.7 kmh NE 12.0 mph19.3 kmh 29.55 in1000.7 mb 0.06 in1.5 mm 0.00 in0.0 mm 0.42 in10.7 mm
03:50 PM 34.0°F1.1°C 32.9°F0.5°C 96% 6.0 mph NE9.7 kmh NE 13.0 mph20.9 kmh 29.55 in1000.7 mb 0.06 in1.5 mm 0.00 in0.0 mm 0.42 in10.7 mm
03:55 PM 34.0°F1.1°C 32.9°F0.5°C 96% 6.0 mph NE9.7 kmh NE 13.0 mph20.9 kmh 29.55 in1000.7 mb 0.05 in1.3 mm 0.00 in0.0 mm 0.42 in10.7 mm
04:00 PM 33.8°F1.0°C 32.7°F0.4°C 96% 6.0 mph NE9.7 kmh NE 14.0 mph22.5 kmh 29.55 in1000.7 mb 0.05 in1.3 mm 0.00 in0.0 mm 0.42 in10.7 mm
04:05 PM 33.6°F0.9°C 32.7°F0.4°C 96% 6.0 mph NE9.7 kmh NE 14.0 mph22.5 kmh 29.55 in1000.7 mb 0.04 in1.0 mm 0.00 in0.0 mm 0.42 in10.7 mm
04:10 PM 33.6°F0.9°C 32.5°F0.3°C 96% 6.0 mph NE9.7 kmh NE 13.0 mph20.9 kmh 29.55 in1000.7 mb 0.03 in0.8 mm 0.00 in0.0 mm 0.42 in10.7 mm
04:15 PM 33.4°F0.8°C 32.5°F0.3°C 96% 6.0 mph NE9.7 kmh NE 13.0 mph20.9 kmh 29.55 in1000.7 mb 0.02 in0.5 mm 0.00 in0.0 mm 0.42 in10.7 mm
04:20 PM 33.4°F0.8°C 32.5°F0.3°C 96% 7.0 mph NE11.3 kmh NE 15.0 mph24.1 kmh 29.55 in1000.7 mb 0.02 in0.5 mm 0.00 in0.0 mm 0.42 in10.7 mm
04:25 PM 33.4°F0.8°C 32.4°F0.2°C 96% 6.0 mph NE9.7 kmh NE 15.0 mph24.1 kmh 29.55 in1000.7 mb 0.02 in0.5 mm 0.00 in0.0 mm 0.43 in10.9 mm
04:30 PM 33.3°F0.7°C 32.4°F0.2°C 96% 7.0 mph NE11.3 kmh NE 14.0 mph22.5 kmh 29.55 in1000.7 mb 0.02 in0.5 mm 0.00 in0.0 mm 0.43 in10.9 mm
04:35 PM 33.3°F0.7°C 32.4°F0.2°C 96% 6.0 mph NE9.7 kmh NE 14.0 mph22.5 kmh 29.55 in1000.7 mb 0.02 in0.5 mm 0.00 in0.0 mm 0.43 in10.9 mm
04:40 PM 33.3°F0.7°C 32.2°F0.1°C 96% 6.0 mph NE9.7 kmh NE 13.0 mph20.9 kmh 29.56 in1001.0 mb 0.02 in0.5 mm 0.00 in0.0 mm 0.43 in10.9 mm
04:45 PM 33.3°F0.7°C 32.2°F0.1°C 96% 5.0 mph NE8.0 kmh NE 12.0 mph19.3 kmh 29.55 in1000.7 mb 0.01 in0.3 mm 0.00 in0.0 mm 0.43 in10.9 mm
04:50 PM 33.1°F0.6°C 32.0°F0.0°C 96% 5.0 mph NE8.0 kmh NE 12.0 mph19.3 kmh 29.56 in1001.0 mb 0.01 in0.3 mm 0.00 in0.0 mm 0.43 in10.9 mm
04:55 PM 33.1°F0.6°C 32.0°F0.0°C 96% 5.0 mph NE8.0 kmh NE 12.0 mph19.3 kmh 29.56 in1001.0 mb 0.01 in0.3 mm 0.00 in0.0 mm 0.43 in10.9 mm
05:00 PM 33.1°F0.6°C 32.0°F0.0°C 96% 6.0 mph NE9.7 kmh NE 13.0 mph20.9 kmh 29.56 in1001.0 mb 0.01 in0.3 mm 0.00 in0.0 mm 0.43 in10.9 mm
05:05 PM 32.9°F0.5°C 31.8°F-0.1°C 96% 6.0 mph NE9.7 kmh NE 13.0 mph20.9 kmh 29.56 in1001.0 mb 0.01 in0.3 mm 0.00 in0.0 mm 0.43 in10.9 mm
05:10 PM 32.9°F0.5°C 31.8°F-0.1°C 96% 6.0 mph NE9.7 kmh NE 13.0 mph20.9 kmh 29.56 in1001.0 mb 0.01 in0.3 mm 0.00 in0.0 mm 0.43 in10.9 mm
05:15 PM 32.7°F0.4°C 31.8°F-0.1°C 96% 6.0 mph NE9.7 kmh NE 13.0 mph20.9 kmh 29.56 in1001.0 mb 0.01 in0.3 mm 0.00 in0.0 mm 0.43 in10.9 mm
05:20 PM 32.7°F0.4°C 31.6°F-0.2°C 96% 6.0 mph NE9.7 kmh NE 11.0 mph17.7 kmh 29.56 in1001.0 mb 0.01 in0.3 mm 0.00 in0.0 mm 0.43 in10.9 mm
05:25 PM 32.7°F0.4°C 31.6°F-0.2°C 96% 5.0 mph NE8.0 kmh NE 13.0 mph20.9 kmh 29.56 in1001.0 mb 0.00 in0.0 mm 0.00 in0.0 mm 0.43 in10.9 mm
05:30 PM 32.5°F0.3°C 31.6°F-0.2°C 96% 5.0 mph NE8.0 kmh NE 13.0 mph20.9 kmh 29.57 in1001.4 mb 0.00 in0.0 mm 0.00 in0.0 mm 0.43 in10.9 mm
05:35 PM 32.5°F0.3°C 31.5°F-0.3°C 96% 5.0 mph NE8.0 kmh NE 11.0 mph17.7 kmh 29.57 in1001.4 mb 0.00 in0.0 mm 0.00 in0.0 mm 0.43 in10.9 mm
05:40 PM 32.5°F0.3°C 31.5°F-0.3°C 96% 5.0 mph NE8.0 kmh NE 9.0 mph14.5 kmh 29.57 in1001.4 mb 0.00 in0.0 mm 0.00 in0.0 mm 0.43 in10.9 mm
05:45 PM 32.4°F0.2°C 31.3°F-0.4°C 96% 5.0 mph NE8.0 kmh NE 13.0 mph20.9 kmh 29.57 in1001.4 mb 0.00 in0.0 mm 0.00 in0.0 mm 0.43 in10.9 mm
05:50 PM 32.2°F0.1°C 31.1°F-0.5°C 96% 4.0 mph NE6.4 kmh NE 13.0 mph20.9 kmh 29.57 in1001.4 mb 0.00 in0.0 mm 0.00 in0.0 mm 0.43 in10.9 mm
05:55 PM 32.0°F0.0°C 30.9°F-0.6°C 96% 5.0 mph NE8.0 kmh NE 14.0 mph22.5 kmh 29.57 in1001.4 mb 0.00 in0.0 mm 0.00 in0.0 mm 0.43 in10.9 mm
06:00 PM 31.8°F-0.1°C 30.9°F-0.6°C 96% 6.0 mph NE9.7 kmh NE 14.0 mph22.5 kmh 29.58 in1001.7 mb 0.00 in0.0 mm 0.00 in0.0 mm 0.43 in10.9 mm
06:05 PM 31.8°F-0.1°C 30.7°F-0.7°C 96% 5.0 mph NE8.0 kmh NE 12.0 mph19.3 kmh 29.58 in1001.7 mb 0.00 in0.0 mm 0.00 in0.0 mm 0.43 in10.9 mm
06:10 PM 31.8°F-0.1°C 30.7°F-0.7°C 96% 5.0 mph NE8.0 kmh NE 12.0 mph19.3 kmh 29.58 in1001.7 mb 0.00 in0.0 mm 0.00 in0.0 mm 0.43 in10.9 mm
06:15 PM 31.6°F-0.2°C 30.6°F-0.8°C 96% 4.0 mph NE6.4 kmh NE 10.0 mph16.1 kmh 29.59 in1002.0 mb 0.00 in0.0 mm 0.00 in0.0 mm 0.43 in10.9 mm
06:20 PM 31.5°F-0.3°C 30.4°F-0.9°C 96% 3.0 mph NE4.8 kmh NE 10.0 mph16.1 kmh 29.59 in1002.0 mb 0.00 in0.0 mm 0.00 in0.0 mm 0.43 in10.9 mm
06:25 PM 31.1°F-0.5°C 30.0°F-1.1°C 96% 4.0 mph NE6.4 kmh NE 14.0 mph22.5 kmh 29.59 in1002.0 mb 0.00 in0.0 mm 0.00 in0.0 mm 0.43 in10.9 mm
06:30 PM 30.9°F-0.6°C 29.8°F-1.2°C 96% 6.0 mph NE9.7 kmh NE 14.0 mph22.5 kmh 29.59 in1002.0 mb 0.00 in0.0 mm 0.00 in0.0 mm 0.43 in10.9 mm
06:35 PM 30.7°F-0.7°C 29.8°F-1.2°C 96% 5.0 mph NE8.0 kmh NE 12.0 mph19.3 kmh 29.60 in1002.4 mb 0.00 in0.0 mm 0.00 in0.0 mm 0.43 in10.9 mm
06:40 PM 30.7°F-0.7°C 29.8°F-1.2°C 96% 4.0 mph NE6.4 kmh NE 11.0 mph17.7 kmh 29.60 in1002.4 mb 0.00 in0.0 mm 0.00 in0.0 mm 0.43 in10.9 mm
06:45 PM 30.6°F-0.8°C 29.5°F-1.4°C 96% 5.0 mph NE8.0 kmh NE 15.0 mph24.1 kmh 29.60 in1002.4 mb 0.00 in0.0 mm 0.00 in0.0 mm 0.43 in10.9 mm
06:50 PM 30.4°F-0.9°C 29.3°F-1.5°C 96% 5.0 mph NE8.0 kmh NE 15.0 mph24.1 kmh 29.61 in1002.7 mb 0.00 in0.0 mm 0.00 in0.0 mm 0.43 in10.9 mm
06:55 PM 30.0°F-1.1°C 29.1°F-1.6°C 96% 4.0 mph NE6.4 kmh NE 10.0 mph16.1 kmh 29.61 in1002.7 mb 0.00 in0.0 mm 0.00 in0.0 mm 0.43 in10.9 mm
07:00 PM 29.8°F-1.2°C 28.8°F-1.8°C 96% 5.0 mph NE8.0 kmh NE 11.0 mph17.7 kmh 29.61 in1002.7 mb 0.00 in0.0 mm 0.00 in0.0 mm 0.43 in10.9 mm
07:05 PM 29.7°F-1.3°C 28.8°F-1.8°C 96% 5.0 mph NE8.0 kmh NE 13.0 mph20.9 kmh 29.61 in1002.7 mb 0.00 in0.0 mm 0.00 in0.0 mm 0.43 in10.9 mm
07:10 PM 29.5°F-1.4°C 28.4°F-2.0°C 96% 5.0 mph NE8.0 kmh NE 13.0 mph20.9 kmh 29.61 in1002.7 mb 0.00 in0.0 mm 0.00 in0.0 mm 0.43 in10.9 mm
07:15 PM 29.1°F-1.6°C 28.2°F-2.1°C 96% 5.0 mph NE8.0 kmh NE 12.0 mph19.3 kmh 29.61 in1002.7 mb 0.00 in0.0 mm 0.00 in0.0 mm 0.43 in10.9 mm
07:20 PM 28.9°F-1.7°C 28.0°F-2.2°C 96% 5.0 mph NE8.0 kmh NE 15.0 mph24.1 kmh 29.61 in1002.7 mb 0.00 in0.0 mm 0.00 in0.0 mm 0.43 in10.9 mm
07:25 PM 28.8°F-1.8°C 27.9°F-2.3°C 96% 6.0 mph NE9.7 kmh NE 15.0 mph24.1 kmh 29.62 in1003.0 mb 0.00 in0.0 mm 0.00 in0.0 mm 0.43 in10.9 mm
07:30 PM 28.8°F-1.8°C 27.9°F-2.3°C 96% 6.0 mph NE9.7 kmh NE 14.0 mph22.5 kmh 29.62 in1003.0 mb 0.00 in0.0 mm 0.00 in0.0 mm 0.43 in10.9 mm
07:35 PM 28.6°F-1.9°C 27.7°F-2.4°C 96% 5.0 mph NE8.0 kmh NE 14.0 mph22.5 kmh 29.62 in1003.0 mb 0.00 in0.0 mm 0.00 in0.0 mm 0.43 in10.9 mm
07:40 PM 28.6°F-1.9°C 27.7°F-2.4°C 96% 5.0 mph NE8.0 kmh NE 14.0 mph22.5 kmh 29.62 in1003.0 mb 0.00 in0.0 mm 0.00 in0.0 mm 0.43 in10.9 mm
07:45 PM 28.4°F-2.0°C 27.3°F-2.6°C 96% 4.0 mph NE6.4 kmh NE 12.0 mph19.3 kmh 29.63 in1003.4 mb 0.00 in0.0 mm 0.00 in0.0 mm 0.43 in10.9 mm
07:50 PM 28.2°F-2.1°C 27.3°F-2.6°C 96% 4.0 mph NE6.4 kmh NE 12.0 mph19.3 kmh 29.63 in1003.4 mb 0.00 in0.0 mm 0.00 in0.0 mm 0.43 in10.9 mm
07:55 PM 28.0°F-2.2°C 27.1°F-2.7°C 96% 6.0 mph NE9.7 kmh NE 16.0 mph25.7 kmh 29.63 in1003.4 mb 0.00 in0.0 mm 0.00 in0.0 mm 0.43 in10.9 mm
08:00 PM 28.0°F-2.2°C 27.0°F-2.8°C 96% 6.0 mph NE9.7 kmh NE 16.0 mph25.7 kmh 29.64 in1003.7 mb 0.00 in0.0 mm 0.00 in0.0 mm 0.43 in10.9 mm
08:05 PM 28.0°F-2.2°C 27.0°F-2.8°C 96% 4.0 mph NE6.4 kmh NE 12.0 mph19.3 kmh 29.64 in1003.7 mb 0.00 in0.0 mm 0.00 in0.0 mm 0.43 in10.9 mm
08:10 PM 28.0°F-2.2°C 27.0°F-2.8°C 96% 4.0 mph NE6.4 kmh NE 12.0 mph19.3 kmh 29.64 in1003.7 mb 0.00 in0.0 mm 0.00 in0.0 mm 0.43 in10.9 mm
08:15 PM 27.9°F-2.3°C 26.8°F-2.9°C 96% 5.0 mph NE8.0 kmh NE 15.0 mph24.1 kmh 29.64 in1003.7 mb 0.00 in0.0 mm 0.00 in0.0 mm 0.43 in10.9 mm
08:20 PM 27.7°F-2.4°C 26.8°F-2.9°C 96% 5.0 mph NE8.0 kmh NE 15.0 mph24.1 kmh 29.65 in1004.1 mb 0.00 in0.0 mm 0.00 in0.0 mm 0.43 in10.9 mm
08:25 PM 27.7°F-2.4°C 26.8°F-2.9°C 96% 4.0 mph NE6.4 kmh NE 15.0 mph24.1 kmh 29.64 in1003.7 mb 0.00 in0.0 mm 0.00 in0.0 mm 0.43 in10.9 mm
08:30 PM 27.7°F-2.4°C 26.8°F-2.9°C 96% 4.0 mph NE6.4 kmh NE 13.0 mph20.9 kmh 29.65 in1004.1 mb 0.00 in0.0 mm 0.00 in0.0 mm 0.43 in10.9 mm
08:35 PM 27.5°F-2.5°C 26.4°F-3.1°C 96% 5.0 mph NE8.0 kmh NE 16.0 mph25.7 kmh 29.65 in1004.1 mb 0.00 in0.0 mm 0.00 in0.0 mm 0.43 in10.9 mm
08:40 PM 27.3°F-2.6°C 26.4°F-3.1°C 96% 5.0 mph NE8.0 kmh NE 16.0 mph25.7 kmh 29.65 in1004.1 mb 0.00 in0.0 mm 0.00 in0.0 mm 0.43 in10.9 mm
08:45 PM 27.5°F-2.5°C 26.4°F-3.1°C 96% 3.0 mph NE4.8 kmh NE 8.0 mph12.9 kmh 29.66 in1004.4 mb 0.00 in0.0 mm 0.00 in0.0 mm 0.43 in10.9 mm
08:50 PM 27.3°F-2.6°C 26.2°F-3.2°C 96% 4.0 mph NE6.4 kmh NE 12.0 mph19.3 kmh 29.66 in1004.4 mb 0.00 in0.0 mm 0.00 in0.0 mm 0.43 in10.9 mm
08:55 PM 27.1°F-2.7°C 26.1°F-3.3°C 96% 5.0 mph NE8.0 kmh NE 12.0 mph19.3 kmh 29.66 in1004.4 mb 0.00 in0.0 mm 0.00 in0.0 mm 0.43 in10.9 mm
09:00 PM 27.1°F-2.7°C 26.2°F-3.2°C 96% 4.0 mph NE6.4 kmh NE 12.0 mph19.3 kmh 29.66 in1004.4 mb 0.00 in0.0 mm 0.00 in0.0 mm 0.43 in10.9 mm
09:05 PM 27.1°F-2.7°C 26.1°F-3.3°C 96% 2.0 mph NE3.2 kmh NE 8.0 mph12.9 kmh 29.66 in1004.4 mb 0.00 in0.0 mm 0.00 in0.0 mm 0.43 in10.9 mm
09:10 PM 27.0°F-2.8°C 26.1°F-3.3°C 96% 3.0 mph NE4.8 kmh NE 15.0 mph24.1 kmh 29.66 in1004.4 mb 0.00 in0.0 mm 0.00 in0.0 mm 0.43 in10.9 mm
09:15 PM 27.0°F-2.8°C 25.9°F-3.4°C 96% 4.0 mph NE6.4 kmh NE 15.0 mph24.1 kmh 29.67 in1004.7 mb 0.00 in0.0 mm 0.00 in0.0 mm 0.43 in10.9 mm
09:20 PM 26.8°F-2.9°C 25.9°F-3.4°C 96% 4.0 mph NE6.4 kmh NE 12.0 mph19.3 kmh 29.67 in1004.7 mb 0.00 in0.0 mm 0.00 in0.0 mm 0.43 in10.9 mm
09:25 PM 26.8°F-2.9°C 25.7°F-3.5°C 96% 5.0 mph NE8.0 kmh NE 13.0 mph20.9 kmh 29.67 in1004.7 mb 0.00 in0.0 mm 0.00 in0.0 mm 0.43 in10.9 mm
09:30 PM 26.6°F-3.0°C 25.7°F-3.5°C 96% 5.0 mph NE8.0 kmh NE 14.0 mph22.5 kmh 29.67 in1004.7 mb 0.00 in0.0 mm 0.00 in0.0 mm 0.43 in10.9 mm
09:35 PM 26.6°F-3.0°C 25.7°F-3.5°C 96% 4.0 mph NE6.4 kmh NE 14.0 mph22.5 kmh 29.68 in1005.1 mb 0.00 in0.0 mm 0.00 in0.0 mm 0.43 in10.9 mm
09:40 PM 26.8°F-2.9°C 25.7°F-3.5°C 96% 3.0 mph NE4.8 kmh NE 9.0 mph14.5 kmh 29.68 in1005.1 mb 0.00 in0.0 mm 0.00 in0.0 mm 0.43 in10.9 mm
09:45 PM 26.8°F-2.9°C 25.7°F-3.5°C 96% 2.0 mph NE3.2 kmh NE 7.0 mph11.3 kmh 29.69 in1005.4 mb 0.00 in0.0 mm 0.00 in0.0 mm 0.43 in10.9 mm
09:50 PM 26.4°F-3.1°C 25.5°F-3.6°C 96% 3.0 mph NE4.8 kmh NE 9.0 mph14.5 kmh 29.69 in1005.4 mb 0.00 in0.0 mm 0.00 in0.0 mm 0.43 in10.9 mm
09:55 PM 26.4°F-3.1°C 25.5°F-3.6°C 96% 3.0 mph NE4.8 kmh NE 9.0 mph14.5 kmh 29.69 in1005.4 mb 0.00 in0.0 mm 0.00 in0.0 mm 0.43 in10.9 mm
10:00 PM 26.4°F-3.1°C 25.5°F-3.6°C 96% 2.0 mph NE3.2 kmh NE 6.0 mph9.7 kmh 29.69 in1005.4 mb 0.00 in0.0 mm 0.00 in0.0 mm 0.43 in10.9 mm
10:05 PM 26.4°F-3.1°C 25.5°F-3.6°C 96% 2.0 mph NE3.2 kmh NE 5.0 mph8.0 kmh 29.69 in1005.4 mb 0.00 in0.0 mm 0.00 in0.0 mm 0.43 in10.9 mm
10:10 PM 26.4°F-3.1°C 25.3°F-3.7°C 96% 2.0 mph NNE3.2 kmh NNE 10.0 mph16.1 kmh 29.70 in1005.8 mb 0.00 in0.0 mm 0.00 in0.0 mm 0.43 in10.9 mm
10:15 PM 26.2°F-3.2°C 25.3°F-3.7°C 96% 3.0 mph NE4.8 kmh NE 11.0 mph17.7 kmh 29.70 in1005.8 mb 0.00 in0.0 mm 0.00 in0.0 mm 0.43 in10.9 mm
10:20 PM 26.1°F-3.3°C 25.2°F-3.8°C 96% 4.0 mph NE6.4 kmh NE 12.0 mph19.3 kmh 29.70 in1005.8 mb 0.00 in0.0 mm 0.00 in0.0 mm 0.43 in10.9 mm
10:25 PM 25.9°F-3.4°C 25.0°F-3.9°C 96% 5.0 mph NE8.0 kmh NE 12.0 mph19.3 kmh 29.70 in1005.8 mb 0.00 in0.0 mm 0.00 in0.0 mm 0.43 in10.9 mm
10:30 PM 25.9°F-3.4°C 24.8°F-4.0°C 96% 6.0 mph NE9.7 kmh NE 14.0 mph22.5 kmh 29.71 in1006.1 mb 0.00 in0.0 mm 0.00 in0.0 mm 0.43 in10.9 mm
10:35 PM 25.7°F-3.5°C 24.8°F-4.0°C 96% 6.0 mph NE9.7 kmh NE 14.0 mph22.5 kmh 29.71 in1006.1 mb 0.00 in0.0 mm 0.00 in0.0 mm 0.43 in10.9 mm
10:40 PM 25.9°F-3.4°C 24.8°F-4.0°C 96% 4.0 mph NE6.4 kmh NE 11.0 mph17.7 kmh 29.72 in1006.4 mb 0.00 in0.0 mm 0.00 in0.0 mm 0.43 in10.9 mm
10:45 PM 25.9°F-3.4°C 24.8°F-4.0°C 96% 2.0 mph NE3.2 kmh NE 7.0 mph11.3 kmh 29.72 in1006.4 mb 0.00 in0.0 mm 0.00 in0.0 mm 0.43 in10.9 mm
10:50 PM 25.9°F-3.4°C 24.8°F-4.0°C 96% 2.0 mph NE3.2 kmh NE 8.0 mph12.9 kmh 29.72 in1006.4 mb 0.00 in0.0 mm 0.00 in0.0 mm 0.43 in10.9 mm
10:55 PM 25.7°F-3.5°C 24.8°F-4.0°C 96% 3.0 mph NE4.8 kmh NE 8.0 mph12.9 kmh 29.72 in1006.4 mb 0.00 in0.0 mm 0.00 in0.0 mm 0.43 in10.9 mm
11:00 PM 25.7°F-3.5°C 24.4°F-4.2°C 95% 3.0 mph NE4.8 kmh NE 10.0 mph16.1 kmh 29.73 in1006.8 mb 0.00 in0.0 mm 0.00 in0.0 mm 0.43 in10.9 mm
11:05 PM 25.5°F-3.6°C 24.4°F-4.2°C 95% 3.0 mph NE4.8 kmh NE 10.0 mph16.1 kmh 29.73 in1006.8 mb 0.00 in0.0 mm 0.00 in0.0 mm 0.43 in10.9 mm
11:10 PM 25.5°F-3.6°C 24.3°F-4.3°C 95% 4.0 mph NE6.4 kmh NE 10.0 mph16.1 kmh 29.73 in1006.8 mb 0.00 in0.0 mm 0.00 in0.0 mm 0.43 in10.9 mm
11:15 PM 25.5°F-3.6°C 24.3°F-4.3°C 95% 4.0 mph NE6.4 kmh NE 10.0 mph16.1 kmh 29.73 in1006.8 mb 0.00 in0.0 mm 0.00 in0.0 mm 0.43 in10.9 mm
11:20 PM 25.5°F-3.6°C 24.3°F-4.3°C 95% 4.0 mph NE6.4 kmh NE 9.0 mph14.5 kmh 29.73 in1006.8 mb 0.00 in0.0 mm 0.00 in0.0 mm 0.43 in10.9 mm
11:25 PM 25.5°F-3.6°C 24.3°F-4.3°C 95% 3.0 mph NE4.8 kmh NE 7.0 mph11.3 kmh 29.73 in1006.8 mb 0.00 in0.0 mm 0.00 in0.0 mm 0.43 in10.9 mm
11:30 PM 25.5°F-3.6°C 24.3°F-4.3°C 95% 3.0 mph NE4.8 kmh NE 7.0 mph11.3 kmh 29.73 in1006.8 mb 0.00 in0.0 mm 0.00 in0.0 mm 0.43 in10.9 mm
11:35 PM 25.3°F-3.7°C 24.1°F-4.4°C 95% 3.0 mph NE4.8 kmh NE 11.0 mph17.7 kmh 29.73 in1006.8 mb 0.00 in0.0 mm 0.00 in0.0 mm 0.43 in10.9 mm
11:40 PM 25.3°F-3.7°C 23.9°F-4.5°C 94% 4.0 mph NE6.4 kmh NE 11.0 mph17.7 kmh 29.74 in1007.1 mb 0.00 in0.0 mm 0.00 in0.0 mm 0.43 in10.9 mm
11:45 PM 25.3°F-3.7°C 23.9°F-4.5°C 94% 4.0 mph NE6.4 kmh NE 8.0 mph12.9 kmh 29.74 in1007.1 mb 0.00 in0.0 mm 0.00 in0.0 mm 0.43 in10.9 mm
11:50 PM 25.3°F-3.7°C 23.9°F-4.5°C 94% 3.0 mph NE4.8 kmh NE 8.0 mph12.9 kmh 29.73 in1006.8 mb 0.00 in0.0 mm 0.00 in0.0 mm 0.43 in10.9 mm
11:55 PM 25.3°F-3.7°C 23.9°F-4.5°C 94% 3.0 mph NE4.8 kmh NE 8.0 mph12.9 kmh 29.73 in1006.8 mb 0.00 in0.0 mm 0.00 in0.0 mm 0.43 in10.9 mm